Earlsboro, OK (74840)

12:33 PM CST on January 21, 2018 (GMT -0600)
Northwood | | Change Station

Elev 912 ft 35.25 °N, 96.69 °W | Updated 8 seconds ago

Overcast
Overcast
68.3 °F
Feels Like 68.3 °F
N
17.1
Wind Variable Wind from SSW
Gusts 32.2 mph

Today
High -- | Low -- °F
--% Chance of Precip.
Yesterday
High -- | Low -- °F
Precip. -- in
Pressure 29.75 in
Visibility 10.0 miles
Clouds Mostly Cloudy 2500 ft
Mostly Cloudy 4500 ft
Overcast 5500 ft
Dew Point 58 °F
Humidity 71%
Rainfall 0.00 in
Snow Depth Not available.
7:33 AM 5:44 PM
Waxing Crescent, 19% visible
METAR KSNL 211815Z AUTO 20018G23KT 10SM BKN025 BKN045 OVC055 18/13 A2975 RMK AO2 T01820129
Pressure 29.75 in
Visibility 10.0 miles
Clouds Mostly Cloudy 2500 ft
Mostly Cloudy 4500 ft
Overcast 5500 ft
Dew Point 58 °F
Humidity 71%
Rainfall 0.00 in
Snow Depth Not available.
7:33 AM 5:44 PM
Waxing Crescent, 19% visible
METAR KSNL 211815Z AUTO 20018G23KT 10SM BKN025 BKN045 OVC055 18/13 A2975 RMK AO2 T01820129

Get Severe Weather Alerts

Thanks for signing up!

Be on the lookout for a verification email in your inbox.

You'll start receiving the daily forecast at 6 AM.

×

10-Day Weather Forecast

Almanac

Astronomy

Jan. 21, 2018 Rise Set
Actual Time
Civil Twilight
Nautical Twilight
Astronomical Twilight
Moon
Length of Visible Light
Length of Day
Tomorrow will be .
, % of the Moon is Illuminated

Today's Extremes

State Highs State Lows

Community

WunderPhotos

Category 6

Welcome to Category 6. This is the collective home for Weather Underground's featured writeups by Dr. Jeff Masters (right), Bob Henson (left), Chris Burt, and other regular contributors.

Nearby

Air Quality

  Air Quality AQ Index Pollutant
Not available.

Snow Depth

Station Depth Elevation

Earthquake Activity

City Distance Mag. Time & Date
Minimum magnitude displayed is 2.5.

Coastal Water Temperatures

Place Temperature

Stations

Nearby Weather Stations

Station Location Temp. Windchill Dew Point Humidity Wind Precip. Elev Updated Type
                   

Watches & Warnings

There are currently no watches in effect.